sensor_id;sensor_type;location;lat;lon;timestamp;pressure;altitude;pressure_sealevel;temperature;humidity
59435;BME280;45241;49.768;8.636;2023-08-01T00:01:46;98997.44;;;19.43;100.00
59435;BME280;45241;49.768;8.636;2023-08-01T00:04:11;98985.66;;;19.58;100.00
59435;BME280;45241;49.768;8.636;2023-08-01T00:06:36;98976.22;;;19.45;100.00
59435;BME280;45241;49.768;8.636;2023-08-01T00:09:01;98975.97;;;19.47;100.00
59435;BME280;45241;49.768;8.636;2023-08-01T00:11:27;98967.19;;;19.60;100.00
59435;BME280;45241;49.768;8.636;2023-08-01T00:13:52;98965.63;;;19.44;100.00
59435;BME280;45241;49.768;8.636;2023-08-01T00:16:17;98951.50;;;19.42;100.00
59435;BME280;45241;49.768;8.636;2023-08-01T00:18:43;98935.97;;;19.52;100.00
59435;BME280;45241;49.768;8.636;2023-08-01T00:21:08;98932.44;;;19.52;100.00
59435;BME280;45241;49.768;8.636;2023-08-01T00:23:36;98921.38;;;19.38;100.00
59435;BME280;45241;49.768;8.636;2023-08-01T00:26:02;98927.13;;;19.26;100.00
59435;BME280;45241;49.768;8.636;2023-08-01T00:28:29;98927.09;;;19.31;100.00
59435;BME280;45241;49.768;8.636;2023-08-01T00:31:07;98908.06;;;19.36;100.00
59435;BME280;45241;49.768;8.636;2023-08-01T00:33:36;98898.19;;;19.51;100.00
59435;BME280;45241;49.768;8.636;2023-08-01T00:36:02;98890.44;;;19.29;100.00
59435;BME280;45241;49.768;8.636;2023-08-01T00:38:28;98884.97;;;19.39;100.00
59435;BME280;45241;49.768;8.636;2023-08-01T00:40:53;98888.72;;;19.43;100.00
59435;BME280;45241;49.768;8.636;2023-08-01T00:43:18;98889.88;;;19.37;100.00
59435;BME280;45241;49.768;8.636;2023-08-01T00:45:44;98874.84;;;19.45;100.00
59435;BME280;45241;49.768;8.636;2023-08-01T00:48:10;98860.72;;;19.48;100.00
59435;BME280;45241;49.768;8.636;2023-08-01T00:50:35;98869.75;;;19.38;100.00
59435;BME280;45241;49.768;8.636;2023-08-01T00:53:01;98865.41;;;19.37;100.00
59435;BME280;45241;49.768;8.636;2023-08-01T00:55:29;98876.63;;;19.25;100.00
59435;BME280;45241;49.768;8.636;2023-08-01T00:57:54;98882.53;;;19.37;100.00
59435;BME280;45241;49.768;8.636;2023-08-01T01:00:19;98882.56;;;19.27;100.00
59435;BME280;45241;49.768;8.636;2023-08-01T01:02:45;98884.38;;;19.42;100.00
59435;BME280;45241;49.768;8.636;2023-08-01T01:05:11;98881.44;;;19.38;100.00
59435;BME280;45241;49.768;8.636;2023-08-01T01:07:39;98876.28;;;19.37;100.00
59435;BME280;45241;49.768;8.636;2023-08-01T01:10:04;98870.84;;;19.37;100.00
59435;BME280;45241;49.768;8.636;2023-08-01T01:12:30;98872.66;;;19.52;100.00
59435;BME280;45241;49.768;8.636;2023-08-01T01:14:55;98890.06;;;19.46;100.00
59435;BME280;45241;49.768;8.636;2023-08-01T01:17:20;98894.50;;;19.31;100.00
59435;BME280;45241;49.768;8.636;2023-08-01T01:19:46;98890.09;;;19.41;100.00
59435;BME280;45241;49.768;8.636;2023-08-01T01:22:12;98879.28;;;19.35;100.00
59435;BME280;45241;49.768;8.636;2023-08-01T01:24:39;98880.28;;;19.45;100.00
59435;BME280;45241;49.768;8.636;2023-08-01T01:27:06;98874.44;;;19.27;100.00
59435;BME280;45241;49.768;8.636;2023-08-01T01:29:33;98877.91;;;19.38;100.00
59435;BME280;45241;49.768;8.636;2023-08-01T01:32:02;98884.63;;;19.46;100.00
59435;BME280;45241;49.768;8.636;2023-08-01T01:34:28;98873.22;;;19.49;100.00
59435;BME280;45241;49.768;8.636;2023-08-01T01:36:53;98878.84;;;19.57;100.00
59435;BME280;45241;49.768;8.636;2023-08-01T01:39:19;98880.22;;;19.60;100.00
59435;BME280;45241;49.768;8.636;2023-08-01T01:41:45;98868.19;;;19.66;100.00
59435;BME280;45241;49.768;8.636;2023-08-01T01:44:11;98880.78;;;19.52;100.00
59435;BME280;45241;49.768;8.636;2023-08-01T01:46:36;98875.13;;;19.43;100.00
59435;BME280;45241;49.768;8.636;2023-08-01T01:49:01;98866.47;;;19.41;100.00
59435;BME280;45241;49.768;8.636;2023-08-01T01:51:28;98865.94;;;19.39;100.00
59435;BME280;45241;49.768;8.636;2023-08-01T01:53:53;98859.41;;;19.40;100.00
59435;BME280;45241;49.768;8.636;2023-08-01T01:56:18;98854.31;;;19.33;100.00
59435;BME280;45241;49.768;8.636;2023-08-01T01:58:44;98852.59;;;19.43;100.00
59435;BME280;45241;49.768;8.636;2023-08-01T02:01:09;98828.91;;;19.48;100.00
59435;BME280;45241;49.768;8.636;2023-08-01T02:03:34;98809.69;;;19.40;100.00
59435;BME280;45241;49.768;8.636;2023-08-01T02:06:03;98798.22;;;19.48;100.00
59435;BME280;45241;49.768;8.636;2023-08-01T02:08:29;98797.78;;;19.30;100.00
59435;BME280;45241;49.768;8.636;2023-08-01T02:10:55;98779.25;;;19.37;100.00
59435;BME280;45241;49.768;8.636;2023-08-01T02:13:23;98751.00;;;19.38;100.00
59435;BME280;45241;49.768;8.636;2023-08-01T02:15:49;98755.94;;;19.31;100.00
59435;BME280;45241;49.768;8.636;2023-08-01T02:18:14;98767.34;;;19.33;100.00
59435;BME280;45241;49.768;8.636;2023-08-01T02:20:39;98759.72;;;19.35;100.00
59435;BME280;45241;49.768;8.636;2023-08-01T02:23:05;98752.41;;;19.31;100.00
59435;BME280;45241;49.768;8.636;2023-08-01T02:25:30;98760.28;;;19.32;100.00
59435;BME280;45241;49.768;8.636;2023-08-01T02:27:55;98759.22;;;19.28;100.00
59435;BME280;45241;49.768;8.636;2023-08-01T02:30:20;98753.72;;;19.38;100.00
59435;BME280;45241;49.768;8.636;2023-08-01T02:32:46;98745.56;;;19.38;100.00
59435;BME280;45241;49.768;8.636;2023-08-01T02:35:11;98755.84;;;19.47;100.00
59435;BME280;45241;49.768;8.636;2023-08-01T02:37:36;98772.59;;;19.54;100.00
59435;BME280;45241;49.768;8.636;2023-08-01T02:40:03;98775.41;;;19.44;100.00
59435;BME280;45241;49.768;8.636;2023-08-01T02:42:32;98783.66;;;19.33;100.00
59435;BME280;45241;49.768;8.636;2023-08-01T02:44:57;98755.72;;;19.57;100.00
59435;BME280;45241;49.768;8.636;2023-08-01T02:47:23;98749.91;;;19.40;100.00
59435;BME280;45241;49.768;8.636;2023-08-01T02:49:48;98742.50;;;19.45;100.00
59435;BME280;45241;49.768;8.636;2023-08-01T02:52:13;98721.84;;;19.49;100.00
59435;BME280;45241;49.768;8.636;2023-08-01T02:54:39;98720.97;;;19.54;100.00
59435;BME280;45241;49.768;8.636;2023-08-01T02:57:04;98714.00;;;19.43;100.00
59435;BME280;45241;49.768;8.636;2023-08-01T02:59:29;98704.94;;;19.52;100.00
59435;BME280;45241;49.768;8.636;2023-08-01T03:01:58;98709.34;;;19.48;100.00
59435;BME280;45241;49.768;8.636;2023-08-01T03:04:23;98710.47;;;19.42;100.00
59435;BME280;45241;49.768;8.636;2023-08-01T03:06:48;98711.13;;;19.58;100.00
59435;BME280;45241;49.768;8.636;2023-08-01T03:09:14;98711.78;;;19.50;100.00
59435;BME280;45241;49.768;8.636;2023-08-01T03:11:39;98704.84;;;19.62;100.00
59435;BME280;45241;49.768;8.636;2023-08-01T03:14:04;98705.47;;;19.54;100.00
59435;BME280;45241;49.768;8.636;2023-08-01T03:16:30;98704.88;;;19.57;100.00
59435;BME280;45241;49.768;8.636;2023-08-01T03:18:56;98709.94;;;19.69;100.00
59435;BME280;45241;49.768;8.636;2023-08-01T03:21:21;98720.34;;;19.62;100.00
59435;BME280;45241;49.768;8.636;2023-08-01T03:23:47;98731.75;;;19.64;100.00
59435;BME280;45241;49.768;8.636;2023-08-01T03:26:12;98730.16;;;19.58;100.00
59435;BME280;45241;49.768;8.636;2023-08-01T03:28:37;98723.09;;;19.57;100.00
59435;BME280;45241;49.768;8.636;2023-08-01T03:31:03;98717.44;;;19.53;100.00
59435;BME280;45241;49.768;8.636;2023-08-01T03:33:28;98732.84;;;19.63;100.00
59435;BME280;45241;49.768;8.636;2023-08-01T03:35:54;98740.00;;;19.54;100.00
59435;BME280;45241;49.768;8.636;2023-08-01T03:38:19;98743.50;;;19.59;100.00
59435;BME280;45241;49.768;8.636;2023-08-01T03:40:44;98737.69;;;19.66;100.00
59435;BME280;45241;49.768;8.636;2023-08-01T03:43:10;98737.56;;;19.52;100.00
59435;BME280;45241;49.768;8.636;2023-08-01T03:45:35;98749.16;;;19.63;100.00
59435;BME280;45241;49.768;8.636;2023-08-01T03:48:00;98749.25;;;19.53;100.00
59435;BME280;45241;49.768;8.636;2023-08-01T03:50:26;98742.91;;;19.62;100.00
59435;BME280;45241;49.768;8.636;2023-08-01T03:52:51;98725.81;;;19.57;100.00
59435;BME280;45241;49.768;8.636;2023-08-01T03:55:16;98724.19;;;19.56;100.00
59435;BME280;45241;49.768;8.636;2023-08-01T03:57:42;98724.25;;;19.51;100.00
59435;BME280;45241;49.768;8.636;2023-08-01T04:00:08;98718.00;;;19.50;100.00
59435;BME280;45241;49.768;8.636;2023-08-01T04:02:41;98718.59;;;19.47;100.00
59435;BME280;45241;49.768;8.636;2023-08-01T04:05:08;98709.09;;;19.45;100.00
59435;BME280;45241;49.768;8.636;2023-08-01T04:07:34;98702.22;;;19.52;100.00
59435;BME280;45241;49.768;8.636;2023-08-01T04:10:00;98696.13;;;19.36;100.00
59435;BME280;45241;49.768;8.636;2023-08-01T04:12:25;98674.81;;;19.49;100.00
59435;BME280;45241;49.768;8.636;2023-08-01T04:14:50;98677.06;;;19.42;100.00
59435;BME280;45241;49.768;8.636;2023-08-01T04:17:15;98687.97;;;19.36;100.00
59435;BME280;45241;49.768;8.636;2023-08-01T04:19:41;98692.78;;;19.45;100.00
59435;BME280;45241;49.768;8.636;2023-08-01T04:22:06;98698.22;;;19.45;100.00
59435;BME280;45241;49.768;8.636;2023-08-01T04:24:31;98710.00;;;19.35;100.00
59435;BME280;45241;49.768;8.636;2023-08-01T04:26:56;98685.69;;;19.49;100.00
59435;BME280;45241;49.768;8.636;2023-08-01T04:29:22;98675.66;;;19.44;100.00
59435;BME280;45241;49.768;8.636;2023-08-01T04:31:47;98686.81;;;19.43;100.00
59435;BME280;45241;49.768;8.636;2023-08-01T04:34:12;98686.72;;;19.53;100.00
59435;BME280;45241;49.768;8.636;2023-08-01T04:36:38;98692.25;;;19.43;100.00
59435;BME280;45241;49.768;8.636;2023-08-01T04:39:03;98692.78;;;19.45;100.00
59435;BME280;45241;49.768;8.636;2023-08-01T04:41:28;98697.66;;;19.48;100.00
59435;BME280;45241;49.768;8.636;2023-08-01T04:43:54;98685.72;;;19.44;100.00
59435;BME280;45241;49.768;8.636;2023-08-01T04:46:19;98713.09;;;19.52;100.00
59435;BME280;45241;49.768;8.636;2023-08-01T04:48:44;98715.06;;;19.47;100.00
59435;BME280;45241;49.768;8.636;2023-08-01T04:51:09;98710.81;;;19.35;100.00
59435;BME280;45241;49.768;8.636;2023-08-01T04:53:35;98722.16;;;19.43;100.00
59435;BME280;45241;49.768;8.636;2023-08-01T04:56:00;98709.66;;;19.42;100.00
59435;BME280;45241;49.768;8.636;2023-08-01T04:58:25;98722.50;;;19.36;100.00
59435;BME280;45241;49.768;8.636;2023-08-01T05:00:51;98730.59;;;19.41;100.00
59435;BME280;45241;49.768;8.636;2023-08-01T05:03:16;98742.28;;;19.42;100.00
59435;BME280;45241;49.768;8.636;2023-08-01T05:05:41;98758.75;;;19.21;100.00
59435;BME280;45241;49.768;8.636;2023-08-01T05:08:07;98728.75;;;19.36;100.00
59435;BME280;45241;49.768;8.636;2023-08-01T05:10:32;98703.63;;;19.21;100.00
59435;BME280;45241;49.768;8.636;2023-08-01T05:12:57;98683.72;;;19.25;100.00
59435;BME280;45241;49.768;8.636;2023-08-01T05:15:23;98677.28;;;18.77;100.00
59435;BME280;45241;49.768;8.636;2023-08-01T05:17:48;98647.59;;;18.96;100.00
59435;BME280;45241;49.768;8.636;2023-08-01T05:20:13;98647.03;;;18.99;100.00
59435;BME280;45241;49.768;8.636;2023-08-01T05:22:39;98629.69;;;18.95;100.00
59435;BME280;45241;49.768;8.636;2023-08-01T05:25:04;98661.25;;;18.86;100.00
59435;BME280;45241;49.768;8.636;2023-08-01T05:27:30;98629.78;;;18.85;100.00
59435;BME280;45241;49.768;8.636;2023-08-01T05:29:55;98638.25;;;18.73;100.00
59435;BME280;45241;49.768;8.636;2023-08-01T05:32:20;98659.22;;;18.62;100.00
59435;BME280;45241;49.768;8.636;2023-08-01T05:34:46;98687.66;;;18.70;100.00
59435;BME280;45241;49.768;8.636;2023-08-01T05:37:11;98691.22;;;18.65;100.00
59435;BME280;45241;49.768;8.636;2023-08-01T05:39:36;98679.88;;;18.58;100.00
59435;BME280;45241;49.768;8.636;2023-08-01T05:42:02;98679.53;;;18.70;100.00
59435;BME280;45241;49.768;8.636;2023-08-01T05:44:27;98674.38;;;18.68;100.00
59435;BME280;45241;49.768;8.636;2023-08-01T05:46:52;98668.34;;;18.76;100.00
59435;BME280;45241;49.768;8.636;2023-08-01T05:49:18;98676.25;;;18.73;100.00
59435;BME280;45241;49.768;8.636;2023-08-01T05:51:43;98681.34;;;18.85;100.00
59435;BME280;45241;49.768;8.636;2023-08-01T05:54:08;98685.34;;;18.92;100.00
59435;BME280;45241;49.768;8.636;2023-08-01T05:56:34;98682.19;;;18.80;100.00
59435;BME280;45241;49.768;8.636;2023-08-01T05:58:59;98674.31;;;18.78;100.00
59435;BME280;45241;49.768;8.636;2023-08-01T06:01:24;98687.53;;;18.90;100.00
59435;BME280;45241;49.768;8.636;2023-08-01T06:03:50;98670.88;;;19.07;100.00
59435;BME280;45241;49.768;8.636;2023-08-01T06:06:15;98675.44;;;19.12;100.00
59435;BME280;45241;49.768;8.636;2023-08-01T06:08:40;98661.34;;;19.10;100.00
59435;BME280;45241;49.768;8.636;2023-08-01T06:11:06;98648.84;;;19.08;100.00
59435;BME280;45241;49.768;8.636;2023-08-01T06:13:31;98641.75;;;19.13;100.00
59435;BME280;45241;49.768;8.636;2023-08-01T06:15:56;98651.56;;;19.08;100.00
59435;BME280;45241;49.768;8.636;2023-08-01T06:18:22;98661.69;;;18.98;100.00
59435;BME280;45241;49.768;8.636;2023-08-01T06:20:47;98671.03;;;19.16;100.00
59435;BME280;45241;49.768;8.636;2023-08-01T06:23:12;98680.00;;;19.16;100.00
59435;BME280;45241;49.768;8.636;2023-08-01T06:25:38;98675.63;;;19.20;100.00
59435;BME280;45241;49.768;8.636;2023-08-01T06:28:03;98670.28;;;19.10;100.00
59435;BME280;45241;49.768;8.636;2023-08-01T06:30:29;98672.44;;;19.13;100.00
59435;BME280;45241;49.768;8.636;2023-08-01T06:32:54;98678.31;;;19.25;100.00
59435;BME280;45241;49.768;8.636;2023-08-01T06:35:19;98673.53;;;19.12;100.00
59435;BME280;45241;49.768;8.636;2023-08-01T06:37:46;98670.00;;;19.12;100.00
59435;BME280;45241;49.768;8.636;2023-08-01T06:40:11;98675.63;;;19.20;100.00
59435;BME280;45241;49.768;8.636;2023-08-01T06:42:37;98673.44;;;19.22;100.00
59435;BME280;45241;49.768;8.636;2023-08-01T06:45:02;98680.44;;;19.28;100.00
59435;BME280;45241;49.768;8.636;2023-08-01T06:47:27;98669.66;;;19.18;100.00
59435;BME280;45241;49.768;8.636;2023-08-01T06:49:53;98675.28;;;19.27;100.00
59435;BME280;45241;49.768;8.636;2023-08-01T06:52:18;98674.72;;;19.30;100.00
59435;BME280;45241;49.768;8.636;2023-08-01T06:54:44;98678.53;;;19.29;100.00
59435;BME280;45241;49.768;8.636;2023-08-01T06:57:09;98664.78;;;19.20;100.00
59435;BME280;45241;49.768;8.636;2023-08-01T06:59:34;98675.88;;;19.24;100.00
59435;BME280;45241;49.768;8.636;2023-08-01T07:02:00;98673.25;;;19.43;100.00
59435;BME280;45241;49.768;8.636;2023-08-01T07:04:26;98693.41;;;19.36;100.00
59435;BME280;45241;49.768;8.636;2023-08-01T07:06:51;98693.19;;;19.33;100.00
59435;BME280;45241;49.768;8.636;2023-08-01T07:09:16;98683.34;;;19.37;100.00
59435;BME280;45241;49.768;8.636;2023-08-01T07:11:41;98694.69;;;19.44;100.00
59435;BME280;45241;49.768;8.636;2023-08-01T07:14:07;98697.75;;;19.37;100.00
59435;BME280;45241;49.768;8.636;2023-08-01T07:16:32;98694.44;;;19.41;100.00
59435;BME280;45241;49.768;8.636;2023-08-01T07:19:00;98702.28;;;19.47;100.00
59435;BME280;45241;49.768;8.636;2023-08-01T07:21:25;98710.56;;;19.32;100.00
59435;BME280;45241;49.768;8.636;2023-08-01T07:23:51;98717.59;;;19.38;100.00
59435;BME280;45241;49.768;8.636;2023-08-01T07:26:16;98721.53;;;19.22;100.00
59435;BME280;45241;49.768;8.636;2023-08-01T07:28:41;98731.38;;;19.13;100.00
59435;BME280;45241;49.768;8.636;2023-08-01T07:31:07;98727.84;;;19.46;100.00
59435;BME280;45241;49.768;8.636;2023-08-01T07:33:33;98717.72;;;19.52;100.00
59435;BME280;45241;49.768;8.636;2023-08-01T07:35:58;98725.66;;;19.48;100.00
59435;BME280;45241;49.768;8.636;2023-08-01T07:38:24;98736.22;;;19.50;100.00
59435;BME280;45241;49.768;8.636;2023-08-01T07:40:50;98731.53;;;19.55;100.00
59435;BME280;45241;49.768;8.636;2023-08-01T07:43:15;98745.56;;;19.38;100.00
59435;BME280;45241;49.768;8.636;2023-08-01T07:45:41;98760.78;;;19.40;100.00
59435;BME280;45241;49.768;8.636;2023-08-01T07:48:06;98768.47;;;19.61;100.00
59435;BME280;45241;49.768;8.636;2023-08-01T07:50:32;98775.19;;;19.74;100.00
59435;BME280;45241;49.768;8.636;2023-08-01T07:52:57;98778.84;;;19.54;100.00
59435;BME280;45241;49.768;8.636;2023-08-01T07:55:23;98785.38;;;19.53;100.00
59435;BME280;45241;49.768;8.636;2023-08-01T07:57:48;98770.97;;;19.53;100.00
59435;BME280;45241;49.768;8.636;2023-08-01T08:00:14;98776.50;;;19.43;100.00
59435;BME280;45241;49.768;8.636;2023-08-01T08:02:41;98771.84;;;19.48;100.00
59435;BME280;45241;49.768;8.636;2023-08-01T08:05:07;98778.72;;;19.75;100.00
59435;BME280;45241;49.768;8.636;2023-08-01T08:07:33;98776.63;;;19.61;100.00
59435;BME280;45241;49.768;8.636;2023-08-01T08:09:58;98780.03;;;19.77;100.00
59435;BME280;45241;49.768;8.636;2023-08-01T08:12:23;98778.47;;;20.00;100.00
59435;BME280;45241;49.768;8.636;2023-08-01T08:14:49;98775.91;;;20.09;100.00
59435;BME280;45241;49.768;8.636;2023-08-01T08:17:14;98779.28;;;20.24;100.00
59435;BME280;45241;49.768;8.636;2023-08-01T08:19:40;98784.97;;;20.47;100.00
59435;BME280;45241;49.768;8.636;2023-08-01T08:22:05;98785.97;;;20.56;100.00
59435;BME280;45241;49.768;8.636;2023-08-01T08:24:31;98779.53;;;20.47;100.00
59435;BME280;45241;49.768;8.636;2023-08-01T08:26:56;98781.56;;;20.36;100.00
59435;BME280;45241;49.768;8.636;2023-08-01T08:29:21;98781.84;;;20.59;100.00
59435;BME280;45241;49.768;8.636;2023-08-01T08:31:47;98782.25;;;20.47;100.00
59435;BME280;45241;49.768;8.636;2023-08-01T08:34:12;98783.53;;;20.54;100.00
59435;BME280;45241;49.768;8.636;2023-08-01T08:36:38;98769.84;;;20.65;100.00
59435;BME280;45241;49.768;8.636;2023-08-01T08:39:03;98764.91;;;20.62;100.00
59435;BME280;45241;49.768;8.636;2023-08-01T08:41:31;98765.13;;;20.89;100.00
59435;BME280;45241;49.768;8.636;2023-08-01T08:43:59;98765.28;;;20.98;100.00
59435;BME280;45241;49.768;8.636;2023-08-01T08:46:28;98766.38;;;20.78;100.00
59435;BME280;45241;49.768;8.636;2023-08-01T08:48:54;98770.13;;;21.01;100.00
59435;BME280;45241;49.768;8.636;2023-08-01T08:51:20;98769.66;;;20.75;100.00
59435;BME280;45241;49.768;8.636;2023-08-01T08:53:46;98768.13;;;20.88;100.00
59435;BME280;45241;49.768;8.636;2023-08-01T08:56:12;98766.72;;;21.28;100.00
59435;BME280;45241;49.768;8.636;2023-08-01T08:58:39;98772.25;;;21.23;100.00
59435;BME280;45241;49.768;8.636;2023-08-01T09:01:05;98768.50;;;21.19;100.00
59435;BME280;45241;49.768;8.636;2023-08-01T09:03:31;98773.34;;;21.22;100.00
59435;BME280;45241;49.768;8.636;2023-08-01T09:06:04;98776.03;;;21.40;100.00
59435;BME280;45241;49.768;8.636;2023-08-01T09:08:35;98777.28;;;21.16;100.00
59435;BME280;45241;49.768;8.636;2023-08-01T09:11:01;98777.84;;;21.31;100.00
59435;BME280;45241;49.768;8.636;2023-08-01T09:13:26;98780.13;;;21.43;100.00
59435;BME280;45241;49.768;8.636;2023-08-01T09:15:52;98778.72;;;21.46;100.00
59435;BME280;45241;49.768;8.636;2023-08-01T09:18:18;98784.47;;;21.44;100.00
59435;BME280;45241;49.768;8.636;2023-08-01T09:20:46;98781.94;;;21.48;100.00
59435;BME280;45241;49.768;8.636;2023-08-01T09:23:11;98775.97;;;21.46;100.00
59435;BME280;45241;49.768;8.636;2023-08-01T09:25:37;98784.47;;;21.25;100.00
59435;BME280;45241;49.768;8.636;2023-08-01T09:28:14;98783.66;;;21.25;100.00
59435;BME280;45241;49.768;8.636;2023-08-01T09:30:45;98783.13;;;21.60;100.00
59435;BME280;45241;49.768;8.636;2023-08-01T09:33:11;98788.88;;;21.59;100.00
59435;BME280;45241;49.768;8.636;2023-08-01T09:35:38;98795.38;;;21.77;100.00
59435;BME280;45241;49.768;8.636;2023-08-01T09:38:04;98791.44;;;21.50;100.00
59435;BME280;45241;49.768;8.636;2023-08-01T09:40:39;98798.16;;;21.58;100.00
59435;BME280;45241;49.768;8.636;2023-08-01T09:43:04;98791.97;;;21.52;100.00
59435;BME280;45241;49.768;8.636;2023-08-01T09:45:30;98792.53;;;21.49;100.00
59435;BME280;45241;49.768;8.636;2023-08-01T09:47:55;98788.03;;;21.91;100.00
59435;BME280;45241;49.768;8.636;2023-08-01T09:50:22;98785.03;;;21.60;100.00
59435;BME280;45241;49.768;8.636;2023-08-01T09:52:48;98778.84;;;21.54;100.00
59435;BME280;45241;49.768;8.636;2023-08-01T09:55:31;98786.75;;;21.56;100.00
59435;BME280;45241;49.768;8.636;2023-08-01T09:57:57;98787.81;;;21.74;100.00
59435;BME280;45241;49.768;8.636;2023-08-01T10:00:23;98787.97;;;21.63;100.00
59435;BME280;45241;49.768;8.636;2023-08-01T10:02:50;98789.59;;;21.64;100.00
59435;BME280;45241;49.768;8.636;2023-08-01T10:05:18;98795.00;;;21.83;98.37
59435;BME280;45241;49.768;8.636;2023-08-01T10:07:45;98791.19;;;21.98;99.93
59435;BME280;45241;49.768;8.636;2023-08-01T10:10:11;98790.19;;;22.08;96.04
59435;BME280;45241;49.768;8.636;2023-08-01T10:12:37;98792.81;;;21.99;96.94
59435;BME280;45241;49.768;8.636;2023-08-01T10:15:03;98797.66;;;22.02;92.29
59435;BME280;45241;49.768;8.636;2023-08-01T10:17:30;98804.75;;;22.17;92.07
59435;BME280;45241;49.768;8.636;2023-08-01T10:19:56;98801.50;;;22.01;86.88
59435;BME280;45241;49.768;8.636;2023-08-01T10:22:23;98800.88;;;21.90;83.79
59435;BME280;45241;49.768;8.636;2023-08-01T10:24:49;98797.47;;;21.98;81.34
59435;BME280;45241;49.768;8.636;2023-08-01T10:27:19;98811.00;;;22.17;86.05
59435;BME280;45241;49.768;8.636;2023-08-01T10:29:44;98807.06;;;21.96;84.10
59435;BME280;45241;49.768;8.636;2023-08-01T10:32:11;98807.13;;;22.51;83.95
59435;BME280;45241;49.768;8.636;2023-08-01T10:34:36;98809.44;;;22.44;81.96
59435;BME280;45241;49.768;8.636;2023-08-01T10:37:02;98799.13;;;22.41;83.09
59435;BME280;45241;49.768;8.636;2023-08-01T10:39:28;98818.03;;;22.51;85.37
59435;BME280;45241;49.768;8.636;2023-08-01T10:42:04;98810.66;;;22.65;81.13
59435;BME280;45241;49.768;8.636;2023-08-01T10:44:30;98810.00;;;22.82;78.98
59435;BME280;45241;49.768;8.636;2023-08-01T10:47:05;98820.19;;;23.04;78.88
59435;BME280;45241;49.768;8.636;2023-08-01T10:49:41;98828.03;;;22.83;76.56
59435;BME280;45241;49.768;8.636;2023-08-01T10:52:21;98812.63;;;23.01;74.78
59435;BME280;45241;49.768;8.636;2023-08-01T10:55:02;98829.94;;;22.82;74.17
59435;BME280;45241;49.768;8.636;2023-08-01T10:57:34;98826.22;;;22.65;71.91
59435;BME280;45241;49.768;8.636;2023-08-01T11:00:00;98827.97;;;23.10;73.41
59435;BME280;45241;49.768;8.636;2023-08-01T11:02:27;98830.69;;;23.10;73.82
59435;BME280;45241;49.768;8.636;2023-08-01T11:07:20;98816.88;;;22.93;74.15
59435;BME280;45241;49.768;8.636;2023-08-01T11:09:46;98808.78;;;23.15;76.85
59435;BME280;45241;49.768;8.636;2023-08-01T11:12:11;98818.59;;;23.03;70.01
59435;BME280;45241;49.768;8.636;2023-08-01T11:14:37;98820.59;;;23.25;70.14
59435;BME280;45241;49.768;8.636;2023-08-01T11:17:02;98834.50;;;23.01;70.58
59435;BME280;45241;49.768;8.636;2023-08-01T11:19:29;98836.47;;;23.09;71.45
59435;BME280;45241;49.768;8.636;2023-08-01T11:21:56;98841.94;;;23.09;71.28
59435;BME280;45241;49.768;8.636;2023-08-01T11:24:22;98827.06;;;23.29;73.89
59435;BME280;45241;49.768;8.636;2023-08-01T11:26:49;98842.38;;;23.02;70.36
59435;BME280;45241;49.768;8.636;2023-08-01T11:29:16;98833.31;;;22.66;66.33
59435;BME280;45241;49.768;8.636;2023-08-01T11:31:52;98837.47;;;22.77;69.17
59435;BME280;45241;49.768;8.636;2023-08-01T11:34:18;98848.88;;;22.93;69.83
59435;BME280;45241;49.768;8.636;2023-08-01T11:36:43;98853.34;;;22.88;71.26
59435;BME280;45241;49.768;8.636;2023-08-01T11:39:11;98842.94;;;22.63;70.58
59435;BME280;45241;49.768;8.636;2023-08-01T11:41:38;98853.72;;;22.82;71.80
59435;BME280;45241;49.768;8.636;2023-08-01T11:44:04;98867.50;;;22.49;70.73
59435;BME280;45241;49.768;8.636;2023-08-01T11:46:33;98862.63;;;22.33;71.90
59435;BME280;45241;49.768;8.636;2023-08-01T11:49:00;98861.06;;;22.26;70.79
59435;BME280;45241;49.768;8.636;2023-08-01T11:51:29;98862.84;;;22.50;71.16
59435;BME280;45241;49.768;8.636;2023-08-01T11:54:01;98863.47;;;22.88;72.95
59435;BME280;45241;49.768;8.636;2023-08-01T11:56:27;98858.59;;;22.85;70.33
59435;BME280;45241;49.768;8.636;2023-08-01T11:58:52;98847.81;;;23.30;70.54
59435;BME280;45241;49.768;8.636;2023-08-01T12:01:18;98849.50;;;23.39;70.54
59435;BME280;45241;49.768;8.636;2023-08-01T12:03:48;98848.38;;;23.85;71.10
59435;BME280;45241;49.768;8.636;2023-08-01T12:06:14;98855.00;;;24.07;69.81
59435;BME280;45241;49.768;8.636;2023-08-01T12:08:44;98847.34;;;23.95;66.36
59435;BME280;45241;49.768;8.636;2023-08-01T12:11:19;98851.94;;;23.86;68.97
59435;BME280;45241;49.768;8.636;2023-08-01T12:13:45;98847.00;;;24.19;64.60
59435;BME280;45241;49.768;8.636;2023-08-01T12:16:11;98850.56;;;23.74;64.12
59435;BME280;45241;49.768;8.636;2023-08-01T12:18:38;98852.63;;;23.91;63.81
59435;BME280;45241;49.768;8.636;2023-08-01T12:21:04;98855.66;;;23.45;64.72
59435;BME280;45241;49.768;8.636;2023-08-01T12:23:31;98849.00;;;23.37;65.47
59435;BME280;45241;49.768;8.636;2023-08-01T12:25:56;98842.81;;;23.68;65.77
59435;BME280;45241;49.768;8.636;2023-08-01T12:28:21;98862.66;;;24.27;65.41
59435;BME280;45241;49.768;8.636;2023-08-01T12:30:46;98853.38;;;24.05;60.61
59435;BME280;45241;49.768;8.636;2023-08-01T12:33:12;98844.97;;;23.80;58.66
59435;BME280;45241;49.768;8.636;2023-08-01T12:35:40;98853.13;;;24.16;59.88
59435;BME280;45241;49.768;8.636;2023-08-01T12:38:09;98851.53;;;24.63;58.95
59435;BME280;45241;49.768;8.636;2023-08-01T12:40:35;98858.59;;;24.86;59.08
59435;BME280;45241;49.768;8.636;2023-08-01T12:43:00;98852.91;;;24.74;60.05
59435;BME280;45241;49.768;8.636;2023-08-01T12:45:25;98852.34;;;24.63;58.90
59435;BME280;45241;49.768;8.636;2023-08-01T12:47:51;98859.88;;;24.49;59.65
59435;BME280;45241;49.768;8.636;2023-08-01T12:50:16;98868.03;;;24.41;60.49